createdAt,value
2019-06-08T00:02:52.840Z,25.10
2019-06-08T00:07:57.434Z,25.40
2019-06-08T00:13:02.042Z,25.40
2019-06-08T00:18:06.953Z,25.40
2019-06-08T00:23:11.455Z,25.40
2019-06-08T00:28:16.632Z,25.40
2019-06-08T00:33:22.626Z,25.30
2019-06-08T00:38:27.224Z,25.40
2019-06-08T00:43:31.695Z,25.40
2019-06-08T00:48:36.225Z,25.40
2019-06-08T00:53:41.000Z,25.40
2019-06-08T00:58:45.539Z,25.40
2019-06-08T01:03:50.176Z,25.40
2019-06-08T01:08:55.047Z,25.50
2019-06-08T01:13:59.553Z,25.10
2019-06-08T01:19:05.122Z,25.40
2019-06-08T01:24:10.092Z,25.30
2019-06-08T01:29:14.703Z,25.20
2019-06-08T01:34:20.496Z,25.40
2019-06-08T01:39:25.252Z,25.50
2019-06-08T01:44:30.199Z,26.20
2019-06-08T01:49:34.735Z,27.20
2019-06-08T01:54:39.659Z,26.50
2019-06-08T01:59:44.192Z,26.30
2019-06-08T02:04:48.815Z,25.70
2019-06-08T02:09:53.433Z,25.90
2019-06-08T02:14:57.982Z,26.10
2019-06-08T02:20:02.594Z,26.20
2019-06-08T02:25:08.059Z,26.90
2019-06-08T02:30:14.172Z,26.30
2019-06-08T02:35:18.663Z,26.40
2019-06-08T02:40:23.765Z,26.50
2019-06-08T02:45:29.677Z,26.70
2019-06-08T02:50:55.494Z,26.70
2019-06-08T02:56:00.184Z,26.80
2019-06-08T03:01:05.227Z,26.70
2019-06-08T03:06:09.750Z,27.20
2019-06-08T03:11:16.113Z,26.80
2019-06-08T03:16:20.735Z,26.80
2019-06-08T03:21:25.425Z,26.90
2019-06-08T03:26:29.919Z,26.60
2019-06-08T03:31:42.429Z,26.60
2019-06-08T03:36:51.254Z,26.80
2019-06-08T03:41:47.605Z,26.80
2019-06-08T03:46:52.094Z,26.70
2019-06-08T03:51:56.838Z,26.60
2019-06-08T03:57:01.342Z,26.60
2019-06-08T04:02:06.177Z,26.50
2019-06-08T04:07:10.782Z,26.40
2019-06-08T04:12:15.432Z,26.30
2019-06-08T04:17:20.138Z,26.30
2019-06-08T04:22:24.652Z,26.30
2019-06-08T04:27:29.239Z,26.30
2019-06-08T04:32:34.211Z,26.30
2019-06-08T04:37:40.302Z,26.20
2019-06-08T04:42:46.674Z,26.20
2019-06-08T04:47:52.400Z,26.30
2019-06-08T04:52:56.933Z,26.20
2019-06-08T04:58:01.634Z,26.30
2019-06-08T05:03:06.110Z,26.40
2019-06-08T05:08:11.232Z,26.50
2019-06-08T05:13:15.699Z,26.50
2019-06-08T05:18:20.340Z,26.50
2019-06-08T05:23:24.892Z,26.50
2019-06-08T05:28:29.968Z,26.60
2019-06-08T05:33:36.372Z,26.60
2019-06-08T05:38:41.595Z,26.60
2019-06-08T05:43:46.221Z,26.80
2019-06-08T05:48:50.893Z,26.80
2019-06-08T05:53:55.436Z,26.80
2019-06-08T05:58:59.949Z,26.80
2019-06-08T06:04:05.564Z,26.80
2019-06-08T06:09:10.077Z,26.80
2019-06-08T06:14:14.788Z,26.70
2019-06-08T06:19:19.418Z,26.50
2019-06-08T06:24:24.084Z,26.50
2019-06-08T06:29:28.595Z,26.40
2019-06-08T06:34:33.395Z,26.60
2019-06-08T06:39:37.902Z,26.60
2019-06-08T06:44:45.208Z,26.30
2019-06-08T06:49:48.774Z,26.40
2019-06-08T06:54:53.399Z,26.60
2019-06-08T06:59:57.967Z,26.30
2019-06-08T07:05:02.865Z,26.20
2019-06-08T07:10:07.623Z,26.20
2019-06-08T07:15:12.283Z,26.20
2019-06-08T07:20:16.924Z,26.20
2019-06-08T07:25:21.392Z,26.10
2019-06-08T07:30:25.930Z,25.90
2019-06-08T07:35:30.849Z,25.90
2019-06-08T07:40:35.375Z,25.90
2019-06-08T07:45:39.848Z,25.90
2019-06-08T07:50:44.624Z,25.80
2019-06-08T07:55:50.076Z,26.10
2019-06-08T08:00:57.880Z,25.70
2019-06-08T08:06:01.167Z,25.70
2019-06-08T08:11:05.819Z,25.60
2019-06-08T08:16:10.451Z,25.60
2019-06-08T08:21:22.125Z,25.80
2019-06-08T08:26:21.371Z,25.80
2019-06-08T08:31:27.895Z,25.70
2019-06-08T08:36:33.400Z,25.70
2019-06-08T08:41:38.956Z,25.90
2019-06-08T08:46:43.724Z,26.00
2019-06-08T08:51:48.282Z,25.80
2019-06-08T08:56:55.431Z,25.60
2019-06-08T09:02:00.953Z,26.40
2019-06-08T09:07:07.790Z,26.20
2019-06-08T09:12:11.560Z,25.60
2019-06-08T09:17:17.921Z,25.90
2019-06-08T09:22:22.610Z,25.80
2019-06-08T09:27:28.069Z,25.60
2019-06-08T09:32:32.841Z,25.60
2019-06-08T09:37:37.835Z,25.90
2019-06-08T09:42:42.387Z,25.70
2019-06-08T09:47:47.824Z,26.10
2019-06-08T09:53:06.473Z,25.70
2019-06-08T09:58:03.952Z,26.20
2019-06-08T10:03:09.115Z,25.90
2019-06-08T10:08:12.582Z,25.90
2019-06-08T10:13:18.889Z,25.90
2019-06-08T10:18:23.839Z,25.90
2019-06-08T10:23:34.234Z,25.80
2019-06-08T10:28:34.793Z,26.00
2019-06-08T10:33:40.657Z,25.90
2019-06-08T10:38:47.955Z,25.50
2019-06-08T10:43:52.037Z,25.00
2019-06-08T10:48:57.388Z,24.40
2019-06-08T10:54:02.321Z,24.50
2019-06-08T10:59:09.856Z,24.50
2019-06-08T11:04:13.305Z,23.90
2019-06-08T11:09:18.909Z,24.00
2019-06-08T11:14:23.739Z,23.90
2019-06-08T11:19:30.600Z,23.70
2019-06-08T11:24:38.758Z,23.50
2019-06-08T11:29:43.496Z,23.70
2019-06-08T11:34:48.869Z,23.40
2019-06-08T11:39:53.567Z,23.30
2019-06-08T11:44:58.638Z,23.10
2019-06-08T11:50:04.687Z,23.00
2019-06-08T11:55:12.887Z,22.90
2019-06-08T12:00:30.718Z,22.70
2019-06-08T12:05:32.574Z,22.60
2019-06-08T12:10:38.200Z,22.50
2019-06-08T12:15:43.788Z,22.50
2019-06-08T12:20:48.977Z,22.50
2019-06-08T12:25:53.532Z,23.00
2019-06-08T12:31:00.838Z,22.80
2019-06-08T12:36:06.050Z,22.50
2019-06-08T12:41:12.716Z,22.20
2019-06-08T12:46:20.890Z,22.40
2019-06-08T12:51:23.860Z,21.90
2019-06-08T12:56:28.784Z,21.70
2019-06-08T13:01:33.801Z,21.40
2019-06-08T13:06:40.787Z,21.20
2019-06-08T13:11:44.610Z,21.40
2019-06-08T13:16:52.676Z,21.10
2019-06-08T13:21:55.331Z,21.20
2019-06-08T13:26:59.843Z,20.80
2019-06-08T13:32:07.698Z,20.60
2019-06-08T13:37:12.501Z,20.90
2019-06-08T13:42:18.461Z,20.30
2019-06-08T13:47:23.588Z,20.40
2019-06-08T13:52:28.347Z,20.50
2019-06-08T13:57:33.126Z,20.20
2019-06-08T14:02:39.677Z,20.00
2019-06-08T14:07:44.211Z,20.00
2019-06-08T14:12:48.925Z,20.00
2019-06-08T14:17:53.731Z,19.30
2019-06-08T14:22:58.932Z,19.20
2019-06-08T14:28:03.761Z,19.40
2019-06-08T14:33:08.549Z,18.70
2019-06-08T14:38:13.183Z,19.80
2019-06-08T14:43:19.539Z,18.70
2019-06-08T14:48:25.979Z,18.60
2019-06-08T14:53:30.787Z,18.50
2019-06-08T14:58:35.303Z,18.50
2019-06-08T15:03:40.588Z,18.60
2019-06-08T15:08:45.314Z,18.60
2019-06-08T15:13:49.835Z,18.60
2019-06-08T15:18:54.702Z,18.60
2019-06-08T15:23:59.861Z,18.40
2019-06-08T15:29:07.399Z,18.60
2019-06-08T15:34:11.605Z,18.40
2019-06-08T15:39:17.888Z,18.20
2019-06-08T15:44:24.516Z,18.20
2019-06-08T15:49:30.977Z,17.90
2019-06-08T15:54:38.512Z,18.00
2019-06-08T15:59:42.033Z,17.80
2019-06-08T16:04:47.075Z,17.80
2019-06-08T16:09:51.605Z,17.80
2019-06-08T16:14:56.184Z,17.50
2019-06-08T16:20:00.831Z,17.40
2019-06-08T16:25:06.118Z,17.20
2019-06-08T16:30:10.783Z,17.20
2019-06-08T16:35:15.559Z,17.40
2019-06-08T16:40:20.267Z,17.20
2019-06-08T16:45:24.848Z,17.30
2019-06-08T16:50:30.206Z,17.10
2019-06-08T16:55:35.942Z,17.00
2019-06-08T17:00:42.237Z,16.80
2019-06-08T17:05:47.236Z,16.90
2019-06-08T17:10:51.847Z,16.60
2019-06-08T17:15:56.368Z,16.80
2019-06-08T17:21:00.929Z,16.70
2019-06-08T17:26:05.559Z,16.70
2019-06-08T17:31:10.141Z,16.50
2019-06-08T17:36:14.679Z,16.30
2019-06-08T17:41:19.296Z,17.10
2019-06-08T17:46:23.834Z,16.20
2019-06-08T17:51:28.631Z,16.40
2019-06-08T17:56:33.151Z,16.50
2019-06-08T18:01:39.670Z,16.20
2019-06-08T18:06:44.664Z,16.30
2019-06-08T18:11:49.199Z,16.10
2019-06-08T18:16:53.736Z,16.20
2019-06-08T18:22:04.250Z,16.20
2019-06-08T18:27:07.662Z,16.30
2019-06-08T18:32:12.025Z,16.60
2019-06-08T18:37:17.996Z,16.60
2019-06-08T18:42:22.658Z,16.70
2019-06-08T18:47:27.596Z,16.80
2019-06-08T18:52:32.090Z,17.20
2019-06-08T18:57:38.477Z,17.70
2019-06-08T19:02:45.103Z,18.30
2019-06-08T19:07:54.227Z,18.40
2019-06-08T19:12:58.734Z,18.40
2019-06-08T19:18:03.395Z,18.50
2019-06-08T19:23:09.121Z,18.30
2019-06-08T19:28:14.132Z,18.10
2019-06-08T19:33:19.083Z,18.00
2019-06-08T19:38:23.661Z,17.90
2019-06-08T19:43:28.335Z,18.50
2019-06-08T19:48:38.616Z,18.60
2019-06-08T19:53:43.407Z,18.80
2019-06-08T19:59:00.285Z,18.80
2019-06-08T20:03:54.525Z,18.90
2019-06-08T20:08:59.056Z,18.80
2019-06-08T20:14:08.069Z,18.90
2019-06-08T20:19:12.671Z,19.00
2019-06-08T20:24:18.471Z,19.20
2019-06-08T20:29:23.030Z,19.30
2019-06-08T20:34:27.995Z,19.40
2019-06-08T20:39:32.766Z,19.40
2019-06-08T20:44:38.310Z,19.50
2019-06-08T20:49:44.275Z,19.90
2019-06-08T20:54:50.484Z,20.10
2019-06-08T20:59:57.895Z,20.20
2019-06-08T21:05:01.366Z,19.60
2019-06-08T21:10:08.642Z,20.20
2019-06-08T21:15:12.832Z,20.50
2019-06-08T21:20:17.737Z,20.60
2019-06-08T21:25:22.332Z,21.10
2019-06-08T21:30:28.477Z,20.90
2019-06-08T21:35:33.354Z,20.80
2019-06-08T21:40:37.890Z,20.90
2019-06-08T21:45:42.547Z,21.30
2019-06-08T21:50:49.039Z,21.20
2019-06-08T21:55:54.224Z,21.20
2019-06-08T22:01:01.022Z,21.20
2019-06-08T22:06:07.751Z,21.30
2019-06-08T22:11:11.611Z,21.60
2019-06-08T22:16:16.559Z,21.60
2019-06-08T22:21:21.203Z,21.70
2019-06-08T22:26:27.968Z,21.80
2019-06-08T22:31:32.122Z,22.20
2019-06-08T22:36:37.284Z,22.40
2019-06-08T22:41:42.060Z,22.60
2019-06-08T22:46:47.851Z,22.50
2019-06-08T22:51:54.738Z,22.50
2019-06-08T22:57:01.201Z,22.70
2019-06-08T23:02:08.147Z,23.00
2019-06-08T23:07:25.686Z,22.50
2019-06-08T23:12:18.638Z,23.10
2019-06-08T23:17:23.280Z,23.20
2019-06-08T23:22:27.811Z,23.30
2019-06-08T23:27:32.352Z,23.40
2019-06-08T23:32:38.645Z,23.50
2019-06-08T23:37:43.196Z,23.60
2019-06-08T23:42:47.971Z,23.60
2019-06-08T23:47:52.507Z,24.00
2019-06-08T23:52:59.023Z,24.10
2019-06-08T23:58:03.243Z,24.00
